Wellston, Michigan
Current Conditions -  °F | °C
As of 5:35 PM on Monday 24 Nov 2014 (Local Time) from KMBL Reporting Station
Overcast Overcast  
Wind Chill: 30°   Ceiling: 800
Heat Index: 37°   Visibility: 10mi
Dew Point: 34°   Wind: 12mph
Humidity: 87%   Direction: 320°NW
Pressure: 29.25"   Gusts: NA
Location:  44.22°N, 85.96°W
Report Text: KMBL 242235Z AUTO 32010KT 10SM BKN008 BKN014 OVC022 03/01 A2925 RMK AO1 P0005
Loading
Personal Weather Stations






























Interactive Weather Map New forecast layout! Learn more

10-Day Weather Forecast

Advertisements
Track Severe Weather on mobile